createdAt,value
2019-05-28T00:01:16.446Z,1.90
2019-05-28T00:03:46.613Z,2.30
2019-05-28T00:06:16.778Z,2.00
2019-05-28T00:08:47.034Z,1.97
2019-05-28T00:11:17.173Z,2.00
2019-05-28T00:13:47.335Z,2.00
2019-05-28T00:16:17.471Z,1.70
2019-05-28T00:18:47.590Z,1.60
2019-05-28T00:21:17.710Z,1.80
2019-05-28T00:23:47.838Z,2.20
2019-05-28T00:26:17.969Z,1.73
2019-05-28T00:28:48.188Z,1.80
2019-05-28T00:31:18.387Z,2.03
2019-05-28T00:33:48.579Z,2.10
2019-05-28T00:36:18.709Z,1.90
2019-05-28T00:38:49.646Z,1.90
2019-05-28T00:41:19.768Z,1.87
2019-05-28T00:43:49.903Z,2.17
2019-05-28T00:46:20.028Z,1.80
2019-05-28T00:48:50.152Z,2.20
2019-05-28T00:51:20.299Z,1.90
2019-05-28T00:53:50.416Z,2.23
2019-05-28T00:56:21.944Z,1.93
2019-05-28T00:58:52.697Z,2.30
2019-05-28T01:01:22.855Z,2.07
2019-05-28T01:03:52.991Z,2.40
2019-05-28T01:06:23.156Z,2.47
2019-05-28T01:08:53.282Z,1.90
2019-05-28T01:11:23.396Z,2.17
2019-05-28T01:13:53.513Z,2.13
2019-05-28T01:16:23.659Z,2.10
2019-05-28T01:18:53.802Z,2.23
2019-05-28T01:21:23.948Z,2.47
2019-05-28T01:23:54.074Z,2.10
2019-05-28T01:26:25.376Z,2.87
2019-05-28T01:28:55.937Z,2.53
2019-05-28T01:31:27.139Z,2.40
2019-05-28T01:33:57.288Z,2.00
2019-05-28T01:36:27.427Z,2.23
2019-05-28T01:38:57.554Z,2.33
2019-05-28T01:41:27.691Z,2.30
2019-05-28T01:43:57.832Z,2.57
2019-05-28T01:46:27.955Z,2.13
2019-05-28T01:48:58.090Z,2.20
2019-05-28T01:51:28.223Z,2.50
2019-05-28T01:53:58.435Z,2.43
2019-05-28T01:56:28.556Z,2.70
2019-05-28T01:58:58.704Z,2.20
2019-05-28T02:01:28.839Z,2.60
2019-05-28T02:03:58.963Z,2.23
2019-05-28T02:06:29.141Z,2.50
2019-05-28T02:08:59.275Z,2.40
2019-05-28T02:11:29.405Z,2.27
2019-05-28T02:13:59.534Z,2.50
2019-05-28T02:16:29.684Z,2.43
2019-05-28T02:18:59.876Z,2.60
2019-05-28T02:21:29.994Z,2.30
2019-05-28T02:24:00.132Z,2.50
2019-05-28T02:26:30.256Z,2.63
2019-05-28T02:29:00.375Z,2.17
2019-05-28T02:31:30.508Z,2.97
2019-05-28T02:34:00.665Z,2.37
2019-05-28T02:36:30.799Z,2.63
2019-05-28T02:39:00.931Z,2.30
2019-05-28T02:41:31.647Z,2.47
2019-05-28T02:44:01.797Z,2.40
2019-05-28T02:46:31.927Z,2.50
2019-05-28T02:49:02.070Z,2.57
2019-05-28T02:51:32.480Z,2.73
2019-05-28T02:54:03.228Z,2.43
2019-05-28T02:56:33.411Z,2.40
2019-05-28T02:59:03.759Z,2.57
2019-05-28T03:01:44.122Z,2.77
2019-05-28T03:04:09.427Z,2.50
2019-05-28T03:06:41.528Z,2.30
2019-05-28T03:09:11.655Z,2.53
2019-05-28T03:11:41.787Z,2.33
2019-05-28T03:14:11.929Z,2.63
2019-05-28T03:16:44.955Z,2.67
2019-05-28T03:19:15.800Z,2.57
2019-05-28T03:21:47.015Z,2.30
2019-05-28T03:24:19.256Z,2.50
2019-05-28T03:26:49.402Z,2.43
2019-05-28T03:29:19.524Z,2.20
2019-05-28T03:32:06.750Z,2.53
2019-05-28T03:34:21.513Z,2.87
2019-05-28T03:36:53.746Z,2.50
2019-05-28T03:39:25.172Z,2.23
2019-05-28T03:41:55.326Z,2.40
2019-05-28T03:44:25.553Z,2.50
2019-05-28T03:46:55.697Z,2.10
2019-05-28T03:49:25.830Z,2.60
2019-05-28T03:51:55.944Z,2.20
2019-05-28T03:54:26.084Z,2.63
2019-05-28T03:56:56.215Z,2.27
2019-05-28T03:59:26.361Z,2.30
2019-05-28T04:01:56.482Z,2.63
2019-05-28T04:04:26.628Z,2.40
2019-05-28T04:06:56.862Z,2.03
2019-05-28T04:09:27.009Z,2.30
2019-05-28T04:11:57.135Z,2.47
2019-05-28T04:14:27.291Z,2.10
2019-05-28T04:16:57.406Z,2.40
2019-05-28T04:19:28.695Z,2.63
2019-05-28T04:21:59.920Z,2.50
2019-05-28T04:24:30.061Z,2.20
2019-05-28T04:27:00.209Z,1.87
2019-05-28T04:29:30.405Z,2.40
2019-05-28T04:32:00.577Z,2.07
2019-05-28T04:34:30.782Z,2.10
2019-05-28T04:37:01.007Z,2.13
2019-05-28T04:39:35.140Z,2.33
2019-05-28T04:42:03.110Z,2.40
2019-05-28T04:44:33.261Z,2.63
2019-05-28T04:47:03.379Z,2.40
2019-05-28T04:49:33.577Z,2.43
2019-05-28T04:52:03.767Z,2.17
2019-05-28T04:54:33.964Z,2.40
2019-05-28T04:57:04.333Z,1.93
2019-05-28T04:59:34.468Z,2.50
2019-05-28T05:02:05.481Z,2.07
2019-05-28T05:04:35.669Z,1.90
2019-05-28T05:07:05.892Z,2.20
2019-05-28T05:09:36.462Z,2.20
2019-05-28T05:12:06.671Z,2.50
2019-05-28T05:14:36.823Z,2.10
2019-05-28T05:17:06.934Z,2.10
2019-05-28T05:19:37.179Z,2.00
2019-05-28T05:22:08.483Z,2.47
2019-05-28T05:24:39.621Z,2.03
2019-05-28T05:27:09.801Z,2.27
2019-05-28T05:29:40.026Z,2.00
2019-05-28T05:32:10.183Z,1.70
2019-05-28T05:34:40.396Z,1.70
2019-05-28T05:37:10.604Z,1.80
2019-05-28T05:39:40.850Z,1.90
2019-05-28T05:42:10.975Z,1.73
2019-05-28T05:44:42.052Z,2.60
2019-05-28T05:47:12.276Z,2.20
2019-05-28T05:49:42.488Z,2.10
2019-05-28T05:52:12.600Z,2.00
2019-05-28T05:54:42.741Z,2.13
2019-05-28T05:57:12.868Z,2.23
2019-05-28T05:59:43.013Z,2.10
2019-05-28T06:02:13.143Z,2.00
2019-05-28T06:04:43.276Z,2.00
2019-05-28T06:07:13.662Z,1.80
2019-05-28T06:09:43.807Z,1.87
2019-05-28T06:12:13.930Z,1.90
2019-05-28T06:14:44.081Z,1.63
2019-05-28T06:17:14.190Z,1.97
2019-05-28T06:19:44.403Z,1.80
2019-05-28T06:22:14.519Z,2.10
2019-05-28T06:24:44.664Z,1.77
2019-05-28T06:27:14.786Z,2.37
2019-05-28T06:29:44.933Z,1.80
2019-05-28T06:32:15.089Z,1.80
2019-05-28T06:34:45.255Z,2.00
2019-05-28T06:37:16.210Z,1.60
2019-05-28T06:39:46.350Z,1.90
2019-05-28T06:42:16.470Z,1.60
2019-05-28T06:44:46.644Z,1.97
2019-05-28T06:47:16.768Z,1.93
2019-05-28T06:49:46.948Z,2.10
2019-05-28T06:52:17.072Z,1.70
2019-05-28T06:54:47.215Z,1.67
2019-05-28T06:57:22.851Z,1.70
2019-05-28T06:59:49.210Z,1.70
2019-05-28T07:02:19.361Z,1.60
2019-05-28T07:04:49.497Z,1.60
2019-05-28T07:07:19.721Z,1.90
2019-05-28T07:09:49.854Z,1.53
2019-05-28T07:12:20.080Z,1.67
2019-05-28T07:14:50.179Z,1.87
2019-05-28T07:17:20.320Z,1.93
2019-05-28T07:19:50.425Z,1.50
2019-05-28T07:22:21.575Z,2.03
2019-05-28T07:24:51.706Z,1.63
2019-05-28T07:27:21.836Z,1.60
2019-05-28T07:29:51.991Z,1.63
2019-05-28T07:32:22.143Z,1.40
2019-05-28T07:34:52.297Z,1.77
2019-05-28T07:37:22.443Z,1.60
2019-05-28T07:39:52.607Z,1.50
2019-05-28T07:42:32.354Z,1.50
2019-05-28T07:44:54.639Z,1.37
2019-05-28T07:47:24.755Z,1.63
2019-05-28T07:49:54.878Z,1.50
2019-05-28T07:52:25.004Z,1.30
2019-05-28T07:54:55.144Z,1.57
2019-05-28T07:57:25.283Z,1.50
2019-05-28T07:59:55.512Z,1.27
2019-05-28T08:02:25.733Z,1.20
2019-05-28T08:04:55.878Z,1.43
2019-05-28T08:07:26.015Z,1.50
2019-05-28T08:09:56.153Z,1.50
2019-05-28T08:12:26.414Z,1.60
2019-05-28T08:14:56.548Z,1.23
2019-05-28T08:17:26.671Z,1.40
2019-05-28T08:19:56.799Z,1.63
2019-05-28T08:22:41.042Z,1.43
2019-05-28T08:24:58.761Z,1.40
2019-05-28T08:27:28.887Z,1.50
2019-05-28T08:29:59.018Z,1.60
2019-05-28T08:32:29.279Z,1.67
2019-05-28T08:35:05.339Z,1.23
2019-05-28T08:37:31.271Z,1.57
2019-05-28T08:40:01.406Z,1.30
2019-05-28T08:42:31.637Z,1.43
2019-05-28T08:45:01.875Z,1.37
2019-05-28T08:47:32.008Z,1.50
2019-05-28T08:50:02.128Z,1.27
2019-05-28T08:52:32.251Z,1.47
2019-05-28T08:55:03.486Z,1.40
2019-05-28T08:57:33.633Z,1.30
2019-05-28T09:00:03.882Z,1.30
2019-05-28T09:02:34.841Z,1.30
2019-05-28T09:05:24.618Z,1.40
2019-05-28T09:07:37.724Z,1.20
2019-05-28T09:10:08.236Z,1.20
2019-05-28T09:12:38.366Z,1.90
2019-05-28T09:15:08.890Z,1.50
2019-05-28T09:17:39.035Z,1.80
2019-05-28T09:20:09.543Z,1.60
2019-05-28T09:22:39.661Z,1.57
2019-05-28T09:25:09.895Z,1.40
2019-05-28T09:27:40.018Z,1.70
2019-05-28T09:30:11.025Z,1.80
2019-05-28T09:32:41.221Z,1.60
2019-05-28T09:35:11.571Z,2.53
2019-05-28T09:37:41.692Z,1.80
2019-05-28T09:40:12.168Z,1.57
2019-05-28T09:42:42.475Z,1.60
2019-05-28T09:45:22.405Z,1.50
2019-05-28T09:47:44.880Z,1.67
2019-05-28T09:50:29.968Z,1.13
2019-05-28T09:52:54.887Z,1.50
2019-05-28T09:55:20.682Z,1.60
2019-05-28T09:57:50.811Z,1.40
2019-05-28T10:00:22.391Z,1.20
2019-05-28T10:02:52.565Z,1.30
2019-05-28T10:05:23.907Z,1.37
2019-05-28T10:07:54.026Z,1.57
2019-05-28T10:10:24.367Z,2.03
2019-05-28T10:12:54.595Z,1.67
2019-05-28T10:15:25.511Z,1.83
2019-05-28T10:17:55.634Z,1.50
2019-05-28T10:20:27.426Z,1.40
2019-05-28T10:22:57.540Z,1.30
2019-05-28T10:25:27.671Z,1.13
2019-05-28T10:28:01.467Z,1.20
2019-05-28T10:30:29.923Z,1.13
2019-05-28T10:33:00.111Z,1.60
2019-05-28T10:35:30.462Z,1.20
2019-05-28T10:38:00.604Z,1.10
2019-05-28T10:40:30.721Z,1.47
2019-05-28T10:43:00.845Z,1.10
2019-05-28T10:45:31.068Z,1.10
2019-05-28T10:48:01.248Z,1.53
2019-05-28T10:50:31.486Z,1.30
2019-05-28T10:53:01.713Z,1.40
2019-05-28T10:55:31.894Z,1.10
2019-05-28T10:58:02.098Z,0.90
2019-05-28T11:00:32.332Z,0.90
2019-05-28T11:03:02.446Z,1.10
2019-05-28T11:05:32.582Z,0.90
2019-05-28T11:08:03.695Z,1.00
2019-05-28T11:10:33.979Z,1.23
2019-05-28T11:13:04.332Z,0.80
2019-05-28T11:15:34.463Z,0.73
2019-05-28T11:18:04.804Z,1.13
2019-05-28T11:20:34.938Z,1.00
2019-05-28T11:23:05.155Z,1.07
2019-05-28T11:25:35.291Z,0.70
2019-05-28T11:28:05.410Z,0.90
2019-05-28T11:30:35.543Z,0.80
2019-05-28T11:33:05.663Z,0.93
2019-05-28T11:35:35.793Z,0.90
2019-05-28T11:38:06.210Z,0.87
2019-05-28T11:40:36.344Z,0.83
2019-05-28T11:43:06.826Z,0.80
2019-05-28T11:45:37.027Z,0.80
2019-05-28T11:48:07.278Z,0.80
2019-05-28T11:50:37.617Z,0.90
2019-05-28T11:53:07.730Z,0.77
2019-05-28T11:55:38.928Z,0.73
2019-05-28T11:58:09.052Z,1.00
2019-05-28T12:00:39.327Z,0.80
2019-05-28T12:03:09.445Z,0.93
2019-05-28T12:05:39.609Z,0.80
2019-05-28T12:08:09.750Z,1.10
2019-05-28T12:10:39.888Z,0.90
2019-05-28T12:13:11.044Z,0.77
2019-05-28T12:15:41.318Z,1.10
2019-05-28T12:18:11.439Z,1.10
2019-05-28T12:20:41.591Z,1.00
2019-05-28T12:23:12.293Z,0.73
2019-05-28T12:25:42.615Z,0.90
2019-05-28T12:28:12.780Z,1.10
2019-05-28T12:30:42.955Z,1.10
2019-05-28T12:33:13.074Z,1.00
2019-05-28T12:35:44.314Z,1.10
2019-05-28T12:38:14.438Z,0.70
2019-05-28T12:40:48.266Z,0.73
2019-05-28T12:43:16.382Z,0.90
2019-05-28T12:45:46.515Z,1.00
2019-05-28T12:48:16.646Z,1.10
2019-05-28T12:50:46.798Z,1.00
2019-05-28T12:53:16.942Z,1.00
2019-05-28T12:55:47.088Z,0.80
2019-05-28T12:58:18.354Z,1.00
2019-05-28T13:00:48.846Z,0.83
2019-05-28T13:03:20.039Z,0.90
2019-05-28T13:05:50.158Z,0.90
2019-05-28T13:08:20.368Z,1.10
2019-05-28T13:10:50.512Z,0.90
2019-05-28T13:13:20.657Z,0.90
2019-05-28T13:15:50.773Z,0.63
2019-05-28T13:18:20.937Z,1.03
2019-05-28T13:20:51.051Z,1.00
2019-05-28T13:23:21.192Z,1.00
2019-05-28T13:25:51.334Z,1.00
2019-05-28T13:28:21.534Z,1.03
2019-05-28T13:30:51.703Z,0.90
2019-05-28T13:33:21.866Z,1.00
2019-05-28T13:35:52.070Z,0.87
2019-05-28T13:38:26.982Z,1.10
2019-05-28T13:40:54.595Z,1.10
2019-05-28T13:43:24.722Z,1.10
2019-05-28T13:45:54.885Z,0.90
2019-05-28T13:48:26.150Z,0.93
2019-05-28T13:50:56.458Z,1.00
2019-05-28T13:53:26.613Z,1.00
2019-05-28T13:55:56.760Z,1.00
2019-05-28T13:58:26.888Z,0.80
2019-05-28T14:00:57.269Z,0.90
2019-05-28T14:03:27.385Z,0.90
2019-05-28T14:05:58.740Z,0.67
2019-05-28T14:08:44.577Z,0.60
2019-05-28T14:11:00.841Z,0.90
2019-05-28T14:13:32.298Z,0.70
2019-05-28T14:16:04.222Z,0.73
2019-05-28T14:18:34.445Z,0.90
2019-05-28T14:21:04.771Z,1.00
2019-05-28T14:23:34.912Z,0.60
2019-05-28T14:26:05.232Z,0.70
2019-05-28T14:28:35.470Z,0.50
2019-05-28T14:31:05.628Z,0.70
2019-05-28T14:33:35.735Z,0.90
2019-05-28T14:36:06.179Z,0.80
2019-05-28T14:38:36.341Z,0.70
2019-05-28T14:41:06.676Z,0.60
2019-05-28T14:43:37.188Z,0.70
2019-05-28T14:46:07.326Z,0.97
2019-05-28T14:48:37.444Z,0.80
2019-05-28T14:51:07.576Z,0.67
2019-05-28T14:53:37.710Z,0.80
2019-05-28T14:56:07.844Z,0.60
2019-05-28T14:58:38.390Z,0.90
2019-05-28T15:01:08.515Z,0.60
2019-05-28T15:03:38.631Z,1.10
2019-05-28T15:06:08.770Z,0.80
2019-05-28T15:08:38.950Z,1.00
2019-05-28T15:11:09.112Z,0.90
2019-05-28T15:13:39.203Z,1.00
2019-05-28T15:16:09.362Z,1.00
2019-05-28T15:18:39.578Z,0.70
2019-05-28T15:21:09.863Z,0.70
2019-05-28T15:23:40.004Z,0.80
2019-05-28T15:26:10.166Z,0.80
2019-05-28T15:28:40.291Z,0.60
2019-05-28T15:31:10.419Z,0.90
2019-05-28T15:33:40.572Z,0.70
2019-05-28T15:36:10.707Z,0.70
2019-05-28T15:38:40.859Z,0.90
2019-05-28T15:41:11.019Z,1.23
2019-05-28T15:43:41.127Z,0.90
2019-05-28T15:46:11.269Z,1.27
2019-05-28T15:48:41.522Z,0.90
2019-05-28T15:51:11.772Z,0.70
2019-05-28T15:53:42.967Z,0.83
2019-05-28T15:56:13.127Z,1.00
2019-05-28T15:58:43.273Z,0.80
2019-05-28T16:01:13.418Z,1.60
2019-05-28T16:03:43.546Z,1.03
2019-05-28T16:06:13.681Z,1.10
2019-05-28T16:08:43.832Z,2.00
2019-05-28T16:11:14.118Z,0.67
2019-05-28T16:13:44.235Z,2.20
2019-05-28T16:16:14.378Z,1.00
2019-05-28T16:18:44.498Z,1.40
2019-05-28T16:21:14.657Z,0.80
2019-05-28T16:23:44.934Z,0.90
2019-05-28T16:26:15.160Z,1.00
2019-05-28T16:28:45.312Z,1.20
2019-05-28T16:31:15.440Z,1.00
2019-05-28T16:33:45.567Z,0.90
2019-05-28T16:36:15.729Z,1.10
2019-05-28T16:38:45.858Z,0.80
2019-05-28T16:41:16.036Z,1.07
2019-05-28T16:43:46.156Z,0.90
2019-05-28T16:46:16.291Z,1.03
2019-05-28T16:48:46.439Z,0.90
2019-05-28T16:51:16.677Z,0.70
2019-05-28T16:53:46.802Z,0.93
2019-05-28T16:56:17.085Z,1.10
2019-05-28T16:58:47.214Z,1.00
2019-05-28T17:01:22.301Z,0.80
2019-05-28T17:03:49.174Z,1.00
2019-05-28T17:06:19.312Z,1.10
2019-05-28T17:08:50.348Z,1.13
2019-05-28T17:11:20.543Z,0.90
2019-05-28T17:13:50.792Z,0.90
2019-05-28T17:16:20.946Z,0.90
2019-05-28T17:18:51.068Z,0.90
2019-05-28T17:21:23.185Z,0.80
2019-05-28T17:23:54.496Z,0.87
2019-05-28T17:26:26.569Z,1.03
2019-05-28T17:28:59.038Z,0.90
2019-05-28T17:31:31.354Z,0.90
2019-05-28T17:34:03.617Z,0.90
2019-05-28T17:36:36.854Z,1.00
2019-05-28T17:39:10.193Z,0.93
2019-05-28T17:41:41.371Z,0.87
2019-05-28T17:44:11.491Z,1.00
2019-05-28T17:46:41.645Z,1.00
2019-05-28T17:49:11.764Z,1.07
2019-05-28T17:51:42.891Z,1.10
2019-05-28T17:54:13.027Z,1.00
2019-05-28T17:56:43.183Z,1.03
2019-05-28T17:59:13.310Z,1.00
2019-05-28T18:01:46.300Z,1.00
2019-05-28T18:04:15.269Z,1.10
2019-05-28T18:06:45.419Z,1.10
2019-05-28T18:09:15.561Z,0.97
2019-05-28T18:11:45.711Z,1.10
2019-05-28T18:14:15.849Z,1.20
2019-05-28T18:16:46.049Z,1.23
2019-05-28T18:19:16.235Z,1.10
2019-05-28T18:21:46.325Z,1.43
2019-05-28T18:24:16.453Z,1.13
2019-05-28T18:26:46.593Z,1.10
2019-05-28T18:29:16.775Z,1.20
2019-05-28T18:31:46.946Z,1.20
2019-05-28T18:34:17.099Z,1.20
2019-05-28T18:36:47.234Z,1.20
2019-05-28T18:39:17.781Z,1.20
2019-05-28T18:41:47.983Z,1.03
2019-05-28T18:44:18.125Z,1.30
2019-05-28T18:46:48.300Z,0.90
2019-05-28T18:49:18.480Z,1.10
2019-05-28T18:51:48.670Z,1.00
2019-05-28T18:54:20.216Z,1.20
2019-05-28T18:56:50.402Z,1.00
2019-05-28T18:59:20.658Z,1.20
2019-05-28T19:01:50.796Z,1.10
2019-05-28T19:04:21.001Z,1.23
2019-05-28T19:06:51.259Z,1.00
2019-05-28T19:09:21.939Z,1.40
2019-05-28T19:11:53.433Z,1.20
2019-05-28T19:14:23.606Z,1.13
2019-05-28T19:16:54.693Z,1.30
2019-05-28T19:19:25.058Z,1.13
2019-05-28T19:21:55.291Z,1.27
2019-05-28T19:24:25.514Z,1.30
2019-05-28T19:26:58.983Z,1.30
2019-05-28T19:29:29.208Z,1.33
2019-05-28T19:31:59.846Z,1.50
2019-05-28T19:34:30.345Z,1.30
2019-05-28T19:37:03.659Z,1.20
2019-05-28T19:39:34.746Z,1.43
2019-05-28T19:42:05.333Z,1.43
2019-05-28T19:44:35.626Z,1.30
2019-05-28T19:47:05.964Z,1.50
2019-05-28T19:49:36.543Z,1.50
2019-05-28T19:52:07.394Z,1.10
2019-05-28T19:54:37.569Z,1.20
2019-05-28T19:57:07.844Z,1.30
2019-05-28T19:59:39.175Z,1.60
2019-05-28T20:02:09.416Z,1.33
2019-05-28T20:04:39.644Z,1.43
2019-05-28T20:07:09.910Z,1.50
2019-05-28T20:09:40.236Z,1.43
2019-05-28T20:12:12.806Z,1.47
2019-05-28T20:14:42.418Z,1.40
2019-05-28T20:17:12.574Z,1.27
2019-05-28T20:19:42.835Z,1.33
2019-05-28T20:22:14.559Z,1.33
2019-05-28T20:24:45.534Z,1.37
2019-05-28T20:27:15.855Z,1.40
2019-05-28T20:29:46.022Z,1.50
2019-05-28T20:32:16.224Z,1.50
2019-05-28T20:34:46.326Z,1.37
2019-05-28T20:37:17.581Z,1.27
2019-05-28T20:39:47.755Z,1.30
2019-05-28T20:42:27.014Z,1.43
2019-05-28T20:44:49.807Z,1.70
2019-05-28T20:47:19.943Z,1.27
2019-05-28T20:49:50.059Z,1.40
2019-05-28T20:52:20.198Z,1.53
2019-05-28T20:54:50.917Z,1.50
2019-05-28T20:57:21.188Z,1.37
2019-05-28T20:59:51.513Z,1.20
2019-05-28T21:02:21.648Z,1.67
2019-05-28T21:04:52.401Z,1.53
2019-05-28T21:07:22.700Z,1.20
2019-05-28T21:09:52.927Z,1.10
2019-05-28T21:12:23.089Z,1.33
2019-05-28T21:14:53.219Z,1.20
2019-05-28T21:17:23.365Z,1.80
2019-05-28T21:19:53.505Z,1.40
2019-05-28T21:22:26.824Z,1.40
2019-05-28T21:24:56.236Z,1.27
2019-05-28T21:27:26.525Z,1.40
2019-05-28T21:29:56.663Z,1.50
2019-05-28T21:32:33.011Z,1.53
2019-05-28T21:35:10.727Z,1.40
2019-05-28T21:37:40.931Z,1.70
2019-05-28T21:40:12.958Z,1.60
2019-05-28T21:42:56.510Z,1.43
2019-05-28T21:45:16.834Z,1.70
2019-05-28T21:47:46.984Z,1.97
2019-05-28T21:50:17.725Z,1.50
2019-05-28T21:52:47.930Z,1.70
2019-05-28T21:55:18.085Z,1.40
2019-05-28T21:57:48.232Z,1.40
2019-05-28T22:00:31.871Z,1.43
2019-05-28T22:03:03.259Z,1.57
2019-05-28T22:05:33.981Z,1.40
2019-05-28T22:08:04.933Z,1.63
2019-05-28T22:10:35.439Z,1.40
2019-05-28T22:13:18.509Z,1.37
2019-05-28T22:15:38.359Z,1.47
2019-05-28T22:18:08.984Z,1.70
2019-05-28T22:20:39.504Z,1.40
2019-05-28T22:23:10.047Z,1.50
2019-05-28T22:25:40.664Z,1.57
2019-05-28T22:28:11.106Z,1.50
2019-05-28T22:30:42.101Z,1.80
2019-05-28T22:33:12.585Z,1.43
2019-05-28T22:35:43.349Z,2.00
2019-05-28T22:38:14.010Z,1.60
2019-05-28T22:40:44.774Z,1.50
2019-05-28T22:43:28.899Z,1.83
2019-05-28T22:45:47.408Z,1.57
2019-05-28T22:48:18.406Z,1.70
2019-05-28T22:50:49.239Z,1.53
2019-05-28T22:53:19.896Z,2.00
2019-05-28T22:55:51.571Z,1.60
2019-05-28T22:58:22.255Z,1.53
2019-05-28T23:00:53.332Z,1.50
2019-05-28T23:03:23.522Z,1.50
2019-05-28T23:05:54.211Z,1.43
2019-05-28T23:08:24.347Z,1.60
2019-05-28T23:10:56.824Z,1.70
2019-05-28T23:13:26.339Z,1.80
2019-05-28T23:15:56.462Z,1.50
2019-05-28T23:18:26.608Z,1.60
2019-05-28T23:20:57.799Z,1.50
2019-05-28T23:23:27.963Z,2.20
2019-05-28T23:25:58.092Z,1.80
2019-05-28T23:28:28.238Z,1.60
2019-05-28T23:30:58.355Z,1.50
2019-05-28T23:33:28.520Z,1.60
2019-05-28T23:35:58.630Z,1.90
2019-05-28T23:38:28.766Z,1.80
2019-05-28T23:40:58.884Z,1.50
2019-05-28T23:43:29.113Z,1.63
2019-05-28T23:45:59.283Z,1.50
2019-05-28T23:48:29.419Z,1.70
2019-05-28T23:50:59.897Z,1.70
2019-05-28T23:53:30.041Z,1.60
2019-05-28T23:56:00.167Z,1.67
2019-05-28T23:58:30.314Z,1.37
